Time;durP1;ratioP1;P1;durP2;ratioP2;P2;SDS_P1;SDS_P2;PMS_P1;PMS_P2;Temp;Humidity;BMP_temperature;BMP_pressure;BME280_temperature;BME280_humidity;BME280_pressure;Samples;Min_cycle;Max_cycle;Signal;HPM_P1;HPM_P2
2021/12/02 00:02:19;;;;;;;0.10;0.10;;;5.90;99.90;4.40;94517.00;;;;4983173;28;20256;-71
2021/12/02 00:04:48;;;;;;;0.10;0.10;;;5.90;99.90;4.40;94472.00;;;;4991097;28;20184;-72
2021/12/02 00:07:16;;;;;;;0.10;0.10;;;5.90;99.90;4.40;94447.00;;;;4991256;28;20200;-72
2021/12/02 00:09:44;;;;;;;0.10;0.10;;;5.90;99.90;4.60;94795.00;;;;4991246;28;20238;-72
2021/12/02 00:12:12;;;;;;;0.10;0.10;;;5.80;99.90;4.20;94314.00;;;;4992191;28;20216;-72
2021/12/02 00:14:43;;;;;;;0.10;0.10;;;5.80;99.90;4.20;94302.00;;;;4995040;28;20200;-72
2021/12/02 00:17:17;;;;;;;0.10;0.10;;;5.80;99.90;4.50;94759.00;;;;4994741;28;20736;-72
2021/12/02 00:22:52;;;;;;;0.10;0.10;;;5.80;99.90;4.40;94753.00;;;;4994779;28;20220;-73
2021/12/02 00:25:24;;;;;;;0.10;0.10;;;5.70;99.90;4.40;94787.00;;;;5003796;28;20199;-72
2021/12/02 00:27:54;;;;;;;0.10;0.10;;;5.70;99.90;4.50;94829.00;;;;5002072;28;20211;-72
2021/12/02 00:30:22;;;;;;;0.10;0.10;;;5.70;99.90;4.50;94844.00;;;;4994042;28;20219;-72
2021/12/02 00:32:55;;;;;;;0.10;0.10;;;5.70;99.90;4.50;94814.00;;;;5007992;28;20215;-73
2021/12/02 00:35:25;;;;;;;0.10;0.10;;;5.70;99.90;4.60;91384.00;;;;5014688;28;20594;-73
2021/12/02 00:37:54;;;;;;;0.10;0.10;;;5.70;99.90;4.40;94805.00;;;;5014684;28;20200;-73
2021/12/02 00:40:22;;;;;;;0.10;0.10;;;5.60;99.90;3.90;94064.00;;;;5005776;28;20204;-73
2021/12/02 00:42:53;;;;;;;0.10;0.10;;;5.60;99.90;226.50;231333.00;;;;4994589;28;20239;-73
2021/12/02 00:45:22;;;;;;;0.10;0.10;;;5.60;99.90;4.20;94730.00;;;;4994630;28;20247;-73
2021/12/02 00:47:51;;;;;;;0.10;0.10;;;5.60;99.90;4.30;94792.00;;;;4994211;28;20204;-73
2021/12/02 00:50:19;;;;;;;0.10;0.10;;;5.60;99.90;4.30;94816.00;;;;4994389;28;20266;-73
2021/12/02 00:52:51;;;;;;;0.10;0.10;;;5.50;99.90;3.90;94274.00;;;;4995028;28;20705;-73
2021/12/02 00:55:21;;;;;;;0.10;0.10;;;5.50;99.90;3.90;94224.00;;;;5014271;28;20242;-73
2021/12/02 00:57:49;;;;;;;0.10;0.10;;;5.50;99.90;3.90;94234.00;;;;5003228;28;20192;-73
2021/12/02 01:00:17;;;;;;;0.10;0.10;;;5.50;99.90;3.80;94268.00;;;;4994524;28;20208;-73
2021/12/02 01:02:49;;;;;;;0.10;0.10;;;5.40;99.90;3.90;94312.00;;;;4993756;28;20705;-73
2021/12/02 01:05:18;;;;;;;0.10;0.10;;;5.40;99.90;3.60;93342.00;;;;4994203;28;20193;-73
2021/12/02 01:07:47;;;;;;;0.10;0.10;;;5.30;99.90;3.70;94264.00;;;;4993603;28;20627;-73
2021/12/02 01:10:15;;;;;;;0.10;0.10;;;5.30;99.90;3.80;94367.00;;;;4994332;28;20685;-73
2021/12/02 01:12:43;;;;;;;0.10;0.10;;;5.30;99.90;3.70;94322.00;;;;4994041;28;20216;-73
2021/12/02 01:15:12;;;;;;;0.10;0.10;;;5.20;99.90;3.60;94291.00;;;;4994143;28;20271;-73
2021/12/02 01:17:40;;;;;;;0.10;0.10;;;5.20;99.90;3.50;94161.00;;;;4994333;28;20243;-73
2021/12/02 01:20:11;;;;;;;0.00;0.00;;;5.10;99.90;3.50;94294.00;;;;4995012;28;20193;-73
2021/12/02 01:22:39;;;;;;;0.10;0.10;;;5.10;99.90;3.50;94349.00;;;;4995208;28;20216;-73
2021/12/02 01:25:09;;;;;;;0.10;0.10;;;5.00;99.90;3.40;94275.00;;;;4994035;28;20205;-73
2021/12/02 01:27:39;;;;;;;0.10;0.10;;;5.00;99.90;3.40;94339.00;;;;4994163;28;20193;-73
2021/12/02 01:30:08;;;;;;;0.10;0.10;;;5.00;99.90;3.30;94250.00;;;;4987648;28;20259;-71
2021/12/02 01:32:41;;;;;;;0.10;0.10;;;4.90;99.90;3.10;93411.00;;;;4979394;28;20225;-71
2021/12/02 01:35:10;;;;;;;0.10;0.10;;;4.90;99.90;3.30;94311.00;;;;4991120;28;20631;-71
2021/12/02 01:37:40;;;;;;;0.10;0.10;;;4.90;99.90;3.30;94372.00;;;;4993214;28;20196;-71
2021/12/02 01:40:11;;;;;;;0.10;0.10;;;4.80;99.90;3.10;93814.00;;;;4993406;28;20197;-71
2021/12/02 01:42:41;;;;;;;0.10;0.10;;;4.80;99.90;3.20;94138.00;;;;4993125;28;20230;-71
2021/12/02 01:45:16;;;;;;;0.10;0.10;;;4.90;99.90;3.20;94295.00;;;;4993502;28;20203;-71
2021/12/02 01:47:51;;;;;;;0.10;0.10;;;4.80;99.90;3.00;94186.00;;;;4993145;28;20250;-71
2021/12/02 01:50:22;;;;;;;0.10;0.10;;;4.70;99.90;3.00;94216.00;;;;4993568;28;20215;-71
2021/12/02 01:52:57;;;;;;;0.10;0.10;;;4.60;99.90;3.10;94435.00;;;;4992851;28;20787;-71
2021/12/02 01:55:29;;;;;;;0.10;0.10;;;4.60;99.90;3.10;94473.00;;;;4993172;28;20191;-73
2021/12/02 01:58:01;;;;;;;0.10;0.10;;;4.60;99.90;3.00;94421.00;;;;4993307;28;20205;-72
2021/12/02 02:00:33;;;;;;;0.10;0.10;;;4.60;99.90;3.00;94433.00;;;;4993037;28;20196;-72
2021/12/02 02:03:03;;;;;;;0.10;0.10;;;4.50;99.90;3.00;94392.00;;;;4991972;28;20690;-73
2021/12/02 02:05:31;;;;;;;0.10;0.10;;;4.50;99.90;2.90;92583.00;;;;4991377;28;20204;-72
2021/12/02 02:08:03;;;;;;;0.10;0.10;;;4.50;99.90;3.20;94893.00;;;;4992687;28;20192;-72
2021/12/02 02:10:38;;;;;;;0.10;0.10;;;4.50;99.90;3.20;94877.00;;;;4991366;28;20212;-73
2021/12/02 02:13:08;;;;;;;0.10;0.10;;;4.40;99.90;2.80;93895.00;;;;4992469;28;20220;-74
2021/12/02 02:15:37;;;;;;;0.10;0.10;;;4.50;99.90;3.30;94807.00;;;;4992226;28;20203;-74
2021/12/02 02:18:10;;;;;;;0.10;0.10;;;4.50;99.90;3.30;94871.00;;;;4992982;28;20442;-74
2021/12/02 02:20:47;;;;;;;0.10;0.10;;;4.50;99.90;3.30;94878.00;;;;4992202;28;20200;-73
2021/12/02 02:23:15;;;;;;;0.10;0.10;;;4.60;99.90;3.30;94887.00;;;;4993614;28;20614;-73
2021/12/02 02:25:46;;;;;;;0.10;0.10;;;4.50;99.90;3.40;94893.00;;;;4992740;28;20224;-73
2021/12/02 02:28:15;;;;;;;0.10;0.10;;;4.60;99.90;3.30;94854.00;;;;4994519;28;20247;-72
2021/12/02 02:30:43;;;;;;;0.10;0.10;;;4.60;99.90;3.30;94890.00;;;;4994650;28;20717;-71
2021/12/02 02:33:12;;;;;;;0.10;0.10;;;4.60;99.90;2.90;93746.00;;;;4993549;28;20258;-71
2021/12/02 02:35:43;;;;;;;0.10;0.10;;;4.60;99.90;3.30;94893.00;;;;4991415;28;20204;-71
2021/12/02 02:38:11;;;;;;;0.10;0.10;;;4.60;99.90;3.30;94873.00;;;;4992775;28;20228;-71
2021/12/02 02:40:40;;;;;;;0.10;0.10;;;4.60;99.90;2.90;94288.00;;;;4992392;28;20231;-71
2021/12/02 02:43:09;;;;;;;0.10;0.10;;;4.60;99.90;3.30;94846.00;;;;4994163;28;20220;-71
2021/12/02 02:45:39;;;;;;;0.10;0.10;;;4.60;99.90;3.00;94506.00;;;;4991761;28;20204;-71
2021/12/02 02:48:07;;;;;;;0.10;0.10;;;4.60;99.90;3.00;92673.00;;;;4992589;28;20615;-71
2021/12/02 02:50:35;;;;;;;0.10;0.10;;;4.50;99.90;3.20;94880.00;;;;4991882;28;20215;-72
2021/12/02 02:53:19;;;;;;;0.10;0.10;;;4.40;99.90;2.60;94035.00;;;;4991918;28;20224;-72
2021/12/02 02:55:58;;;;;;;0.10;0.10;;;4.40;99.90;2.80;94321.00;;;;4992008;28;20203;-72
2021/12/02 02:58:32;;;;;;;0.10;0.10;;;4.40;99.90;2.90;94435.00;;;;4992444;28;20802;-72
2021/12/02 03:01:03;;;;;;;0.10;0.10;;;4.40;99.90;3.10;94711.00;;;;4991984;28;20196;-72
2021/12/02 03:03:39;;;;;;;0.10;0.10;;;4.50;99.90;2.90;94685.00;;;;5007041;28;20188;-72
2021/12/02 03:06:24;;;;;;;0.10;0.10;;;4.40;99.90;3.10;94911.00;;;;4991973;28;20199;-72
2021/12/02 03:08:57;;;;;;;0.10;0.10;;;4.40;99.90;3.20;94903.00;;;;4992048;28;20532;-72
2021/12/02 03:11:28;;;;;;;0.15;0.15;;;4.40;99.90;2.80;94398.00;;;;4992036;28;20720;-72
2021/12/02 03:13:57;;;;;;;0.10;0.10;;;4.40;99.90;3.00;94661.00;;;;4991661;28;20222;-73
2021/12/02 03:16:43;;;;;;;0.10;0.10;;;4.40;99.90;3.20;94925.00;;;;4991860;28;20606;-73
2021/12/02 03:19:13;;;;;;;0.10;0.10;;;4.40;99.90;3.20;94890.00;;;;4990381;28;20258;-73
2021/12/02 03:21:42;;;;;;;0.10;0.10;;;4.50;99.90;3.00;94709.00;;;;4991976;28;20796;-73
2021/12/02 03:24:11;;;;;;;0.10;0.10;;;4.40;99.90;3.00;94658.00;;;;4991681;28;20243;-73
2021/12/02 03:26:40;;;;;;;0.10;0.10;;;4.50;99.90;3.00;94706.00;;;;4991149;28;20188;-73
2021/12/02 03:29:07;;;;;;;0.10;0.10;;;4.50;99.90;3.10;94811.00;;;;4992348;28;20224;-73
2021/12/02 03:31:36;;;;;;;0.10;0.10;;;4.50;99.90;3.00;94726.00;;;;4991752;28;20251;-73
2021/12/02 03:34:05;;;;;;;0.10;0.10;;;4.50;99.90;3.10;94771.00;;;;4991746;28;20292;-74
2021/12/02 03:36:34;;;;;;;0.10;0.10;;;4.50;99.90;3.10;94729.00;;;;4991418;28;20587;-72
2021/12/02 03:39:03;;;;;;;0.10;0.10;;;4.50;99.90;3.10;94828.00;;;;4992082;28;20281;-73
2021/12/02 03:41:33;;;;;;;0.10;0.10;;;4.50;99.90;3.20;94879.00;;;;4991691;28;20216;-73
2021/12/02 03:44:02;;;;;;;0.10;0.10;;;4.50;99.90;3.10;94734.00;;;;5007057;28;20215;-72
2021/12/02 03:46:30;;;;;;;0.10;0.10;;;4.50;99.90;2.80;93792.00;;;;4991263;28;20600;-73
2021/12/02 03:48:59;;;;;;;0.10;0.10;;;4.50;99.90;2.70;93671.00;;;;4995789;28;20287;-73
2021/12/02 03:51:28;;;;;;;0.10;0.10;;;4.50;99.90;2.80;93592.00;;;;4988057;28;20235;-73
2021/12/02 03:53:57;;;;;;;0.10;0.10;;;4.50;99.90;2.80;93545.00;;;;4996989;28;20231;-73
2021/12/02 03:56:25;;;;;;;0.10;0.10;;;4.50;99.90;2.80;93685.00;;;;4998061;28;20192;-74
2021/12/02 03:58:55;;;;;;;0.10;0.10;;;4.50;99.90;2.80;93588.00;;;;5000075;28;20192;-74
2021/12/02 04:01:24;;;;;;;0.10;0.10;;;4.50;99.90;2.70;93484.00;;;;5000051;28;20263;-74
2021/12/02 04:03:53;;;;;;;0.10;0.10;;;4.50;99.90;2.70;93365.00;;;;5000723;28;20192;-74
2021/12/02 04:06:21;;;;;;;0.10;0.10;;;4.50;99.90;2.70;93617.00;;;;4982497;28;20263;-74
2021/12/02 04:08:52;;;;;;;0.10;0.10;;;4.40;99.90;2.70;93517.00;;;;4983967;28;20197;-74
2021/12/02 04:11:29;;;;;;;0.10;0.10;;;4.50;99.90;2.70;93806.00;;;;4983271;28;20217;-74
2021/12/02 04:14:08;;;;;;;0.10;0.10;;;4.40;99.90;2.70;93892.00;;;;4984416;28;20197;-74
2021/12/02 04:16:39;;;;;;;0.10;0.10;;;4.40;99.90;2.70;93931.00;;;;4994440;28;20243;-73
2021/12/02 04:19:10;;;;;;;0.10;0.10;;;4.50;99.90;2.70;93696.00;;;;5004181;28;20259;-72
2021/12/02 04:21:40;;;;;;;0.10;0.10;;;4.50;99.90;2.60;93875.00;;;;5004225;28;20235;-72
2021/12/02 04:24:08;;;;;;;0.10;0.10;;;4.50;99.90;2.70;93671.00;;;;5003375;28;20261;-73
2021/12/02 04:26:39;;;;;;;0.10;0.10;;;4.40;99.90;2.70;93847.00;;;;4998518;28;20479;-73
2021/12/02 04:29:08;;;;;;;0.10;0.10;;;4.40;99.90;2.70;93853.00;;;;5001124;28;20200;-74
2021/12/02 04:31:37;;;;;;;0.10;0.10;;;4.40;99.90;2.70;93858.00;;;;5001748;28;20220;-73
2021/12/02 04:34:05;;;;;;;0.10;0.10;;;4.40;99.90;3.10;94888.00;;;;5000347;28;20208;-73
2021/12/02 04:36:33;;;;;;;0.10;0.10;;;4.40;99.90;3.10;94904.00;;;;4999083;28;20192;-73
2021/12/02 04:39:01;;;;;;;0.10;0.10;;;4.40;99.90;3.00;94799.00;;;;4999955;28;20255;-73
2021/12/02 04:41:29;;;;;;;0.10;0.10;;;4.40;99.90;3.00;94833.00;;;;4995282;28;20278;-72
2021/12/02 04:43:57;;;;;;;0.10;0.10;;;4.40;99.90;3.10;94862.00;;;;4984983;28;20204;-74
2021/12/02 04:46:26;;;;;;;0.10;0.10;;;4.50;99.90;3.10;94901.00;;;;4998629;28;20208;-73
2021/12/02 04:48:54;;;;;;;0.10;0.10;;;4.40;99.90;3.10;94955.00;;;;5004574;28;20284;-73
2021/12/02 04:51:22;;;;;;;0.10;0.10;;;4.40;99.90;3.10;94880.00;;;;5002415;28;20224;-73
2021/12/02 04:53:51;;;;;;;0.10;0.10;;;4.40;99.90;3.20;94946.00;;;;4997720;28;20213;-73
2021/12/02 04:56:19;;;;;;;0.10;0.10;;;4.50;99.90;3.10;94942.00;;;;4996835;28;20254;-73
2021/12/02 04:58:47;;;;;;;0.10;0.10;;;4.40;99.90;3.00;94876.00;;;;4996016;28;20275;-73
2021/12/02 05:01:15;;;;;;;0.10;0.10;;;4.40;99.90;2.90;94699.00;;;;4997984;28;20220;-73
2021/12/02 05:03:44;;;;;;;0.10;0.10;;;4.40;99.90;3.00;94819.00;;;;4991182;28;20292;-72
2021/12/02 05:06:15;;;;;;;0.10;0.10;;;4.40;99.90;3.00;94730.00;;;;4987237;28;20267;-73
2021/12/02 05:08:43;;;;;;;0.10;0.10;;;4.40;99.90;3.10;94867.00;;;;4985139;28;20203;-72
2021/12/02 05:11:11;;;;;;;0.10;0.10;;;4.50;99.90;3.00;94807.00;;;;4990164;28;20271;-73
2021/12/02 05:13:39;;;;;;;0.10;0.10;;;4.50;99.90;3.00;94721.00;;;;4994025;28;20270;-73
2021/12/02 05:16:07;;;;;;;0.00;0.00;;;4.40;99.90;3.00;94841.00;;;;4992375;28;20678;-73
2021/12/02 05:18:35;;;;;;;0.10;0.10;;;4.40;99.90;3.00;94913.00;;;;4984232;28;20613;-73
2021/12/02 05:21:04;;;;;;;0.10;0.10;;;4.40;99.90;3.00;94932.00;;;;5004163;28;20605;-73
2021/12/02 05:23:33;;;;;;;0.10;0.10;;;4.40;99.90;2.90;94829.00;;;;4993090;28;20267;-73
2021/12/02 05:26:01;;;;;;;0.10;0.10;;;4.40;99.90;2.90;94885.00;;;;4992163;28;20243;-74
2021/12/02 05:28:29;;;;;;;0.10;0.10;;;4.40;99.90;2.90;94796.00;;;;4991830;28;20192;-73
2021/12/02 05:30:57;;;;;;;0.10;0.10;;;4.40;99.90;2.80;94763.00;;;;4993988;28;20243;-73
2021/12/02 05:33:25;;;;;;;0.10;0.10;;;4.30;99.90;2.80;94758.00;;;;4993851;28;20279;-73
2021/12/02 05:35:53;;;;;;;0.10;0.10;;;4.30;99.90;2.90;94801.00;;;;4993034;28;20192;-73
2021/12/02 05:38:22;;;;;;;0.10;0.10;;;4.30;99.90;3.10;94923.00;;;;4993768;28;20201;-74
2021/12/02 05:40:50;;;;;;;0.10;0.10;;;4.40;99.90;3.10;94923.00;;;;4993082;28;20660;-75
2021/12/02 05:43:18;;;;;;;0.10;0.10;;;4.40;99.90;3.10;94967.00;;;;4994282;28;20250;-74
2021/12/02 05:45:47;;;;;;;0.10;0.10;;;4.40;99.90;3.00;94826.00;;;;4994755;28;20193;-73
2021/12/02 05:48:16;;;;;;;0.10;0.10;;;4.40;99.90;3.00;94892.00;;;;4976008;28;20217;-72
2021/12/02 05:50:44;;;;;;;0.10;0.10;;;4.40;99.90;3.00;94933.00;;;;4976932;28;20247;-72
2021/12/02 05:53:13;;;;;;;0.10;0.10;;;4.40;99.90;2.90;94948.00;;;;4993727;28;20274;-73
2021/12/02 05:55:43;;;;;;;0.10;0.10;;;4.30;99.90;3.00;94850.00;;;;4993687;28;20571;-73
2021/12/02 05:58:13;;;;;;;0.10;0.10;;;4.30;99.90;2.90;94934.00;;;;4994324;28;20204;-73
2021/12/02 06:00:42;;;;;;;0.10;0.10;;;4.20;99.90;2.80;94819.00;;;;4987174;28;20545;-75
2021/12/02 06:03:10;;;;;;;0.03;0.03;;;4.30;99.90;3.00;95017.00;;;;4974502;28;20292;-73
2021/12/02 06:05:39;;;;;;;0.10;0.10;;;4.30;99.90;2.90;94954.00;;;;4992993;28;20644;-73
2021/12/02 06:08:07;;;;;;;0.10;0.10;;;4.20;99.90;3.00;94980.00;;;;4993227;28;20197;-73
2021/12/02 06:10:35;;;;;;;0.10;0.10;;;4.30;99.90;3.00;95007.00;;;;4993355;28;20259;-73
2021/12/02 06:13:04;;;;;;;0.10;0.10;;;4.30;99.90;3.00;94958.00;;;;4991532;28;20224;-73
2021/12/02 06:15:32;;;;;;;0.10;0.10;;;4.40;99.90;3.10;94962.00;;;;4994053;28;20611;-74
2021/12/02 06:18:00;;;;;;;0.10;0.10;;;4.40;99.90;3.10;94933.00;;;;4993929;28;20279;-74
2021/12/02 06:20:28;;;;;;;0.10;0.10;;;4.40;99.90;2.90;94709.00;;;;4996665;28;20193;-73
2021/12/02 06:22:56;;;;;;;0.10;0.10;;;4.40;99.90;2.70;93984.00;;;;5001860;28;20236;-73
2021/12/02 06:28:11;;;;;;;0.10;0.10;;;4.40;99.90;2.70;94009.00;;;;4993612;28;20243;-73
2021/12/02 06:30:40;;;;;;;0.10;0.10;;;4.40;99.90;2.70;94070.00;;;;4992349;28;20200;-73
2021/12/02 06:33:08;;;;;;;0.10;0.10;;;4.40;99.90;2.60;94029.00;;;;4992384;28;20698;-73
2021/12/02 06:35:39;;;;;;;0.10;0.10;;;4.30;99.90;2.60;93891.00;;;;4992549;28;20611;-73
2021/12/02 06:38:07;;;;;;;0.10;0.10;;;4.30;99.90;3.00;94899.00;;;;4991752;28;20274;-73
2021/12/02 06:40:37;;;;;;;0.10;0.10;;;4.30;99.90;2.90;94896.00;;;;4991084;28;20207;-74
2021/12/02 06:43:06;;;;;;;0.10;0.10;;;4.30;99.90;2.90;94817.00;;;;4990832;28;20270;-72
2021/12/02 06:45:35;;;;;;;0.10;0.10;;;4.30;99.90;2.90;94729.00;;;;4992042;28;20188;-73
2021/12/02 06:48:04;;;;;;;0.10;0.10;;;4.30;99.90;3.00;94963.00;;;;4992494;28;20193;-73
2021/12/02 06:50:34;;;;;;;0.10;0.10;;;4.30;99.90;2.90;94980.00;;;;4994210;28;20746;-74
2021/12/02 06:53:02;;;;;;;0.10;0.10;;;4.30;99.90;2.90;94982.00;;;;4994647;28;20235;-73
2021/12/02 06:55:30;;;;;;;0.10;0.10;;;4.30;99.90;2.90;94879.00;;;;4995760;28;20207;-71
2021/12/02 06:57:59;;;;;;;0.10;0.10;;;4.20;99.90;2.90;94870.00;;;;4991705;28;20601;-73
2021/12/02 07:00:27;;;;;;;0.10;0.10;;;4.20;99.90;2.90;94964.00;;;;4992407;28;20200;-73
2021/12/02 07:02:57;;;;;;;0.10;0.10;;;4.20;99.90;2.80;94972.00;;;;4992430;28;20219;-73
2021/12/02 07:05:25;;;;;;;0.10;0.10;;;4.20;99.90;2.80;94918.00;;;;5008711;28;20207;-74
2021/12/02 07:07:53;;;;;;;0.10;0.10;;;4.20;99.90;2.90;95056.00;;;;4993555;28;20259;-71
2021/12/02 07:10:25;;;;;;;0.10;0.10;;;4.20;99.90;2.50;94447.00;;;;4992372;28;20594;-72
2021/12/02 07:12:56;;;;;;;0.10;0.10;;;4.10;99.90;2.40;94361.00;;;;4992083;28;20307;-72
2021/12/02 07:15:29;;;;;;;0.10;0.10;;;4.10;99.90;2.60;94561.00;;;;4992632;28;20227;-73
2021/12/02 07:18:10;;;;;;;0.10;0.10;;;4.10;99.90;2.50;94573.00;;;;4992272;28;20197;-73
2021/12/02 07:20:40;;;;;;;0.10;0.10;;;4.10;99.90;2.50;94571.00;;;;4991875;28;20236;-71
2021/12/02 07:23:08;;;;;;;0.10;0.10;;;4.10;99.90;2.50;94544.00;;;;5000813;28;20274;-74
2021/12/02 07:25:38;;;;;;;0.10;0.10;;;4.10;99.90;2.50;94598.00;;;;4997985;28;20196;-73
2021/12/02 07:28:08;;;;;;;0.10;0.10;;;4.10;99.90;2.60;94576.00;;;;4996910;28;20206;-73
2021/12/02 07:30:36;;;;;;;0.10;0.10;;;4.20;99.90;2.30;93524.00;;;;4997581;28;20259;-73
2021/12/02 07:33:09;;;;;;;0.05;0.05;;;4.10;99.90;2.50;94332.00;;;;4996785;28;20274;-73
2021/12/02 07:35:38;;;;;;;0.10;0.10;;;4.10;99.90;2.50;94364.00;;;;4996088;28;20247;-75
2021/12/02 07:38:06;;;;;;;0.00;0.00;;;4.10;99.90;2.60;94409.00;;;;4996419;28;20688;-72
2021/12/02 07:40:39;;;;;;;0.10;0.10;;;4.20;99.90;2.70;94334.00;;;;4995542;28;20193;-75
2021/12/02 07:43:08;;;;;;;0.10;0.10;;;4.20;99.90;2.70;94437.00;;;;4996179;28;20270;-72
2021/12/02 07:45:36;;;;;;;0.08;0.08;;;4.30;99.90;2.70;94554.00;;;;4995746;28;20200;-72
2021/12/02 07:48:09;;;;;;;0.10;0.10;;;4.30;99.90;2.70;94577.00;;;;4996167;28;20242;-72
2021/12/02 07:50:37;;;;;;;0.10;0.10;;;4.30;99.90;2.60;94423.00;;;;4995938;28;20200;-74
2021/12/02 07:53:08;;;;;;;0.10;0.10;;;4.30;99.90;2.60;94417.00;;;;4995078;28;20287;-72
2021/12/02 07:55:40;;;;;;;0.10;0.10;;;4.20;99.90;2.60;94469.00;;;;4995629;28;20204;-73
2021/12/02 07:58:11;;;;;;;0.10;0.10;;;4.20;99.90;2.60;94512.00;;;;4995557;28;20197;-72
2021/12/02 08:00:40;;;;;;;0.10;0.10;;;4.20;99.90;2.40;93970.00;;;;4995483;28;20432;-72
2021/12/02 08:03:12;;;;;;;0.10;0.10;;;4.10;99.90;2.60;94576.00;;;;4995684;28;20218;-72
2021/12/02 08:05:42;;;;;;;0.10;0.10;;;4.10;99.90;2.70;94623.00;;;;4994951;28;20286;-72
2021/12/02 08:08:12;;;;;;;0.10;0.10;;;4.20;99.90;2.50;94248.00;;;;4995720;28;20196;-72
2021/12/02 08:10:40;;;;;;;0.10;0.10;;;4.20;99.90;2.60;94305.00;;;;4996643;28;20227;-75
2021/12/02 08:13:08;;;;;;;0.10;0.10;;;4.20;99.90;2.80;94692.00;;;;4996905;28;20219;-73
2021/12/02 08:15:36;;;;;;;0.10;0.10;;;4.30;99.90;2.80;94621.00;;;;4998181;28;20192;-73
2021/12/02 08:18:04;;;;;;;0.10;0.10;;;4.30;99.90;3.00;95061.00;;;;4995861;28;20196;-74
2021/12/02 08:20:34;;;;;;;0.10;0.10;;;4.30;99.90;3.00;95083.00;;;;4995072;28;20231;-74
2021/12/02 08:23:03;;;;;;;0.10;0.10;;;4.30;99.90;3.00;95040.00;;;;4995238;28;20262;-74
2021/12/02 08:25:32;;;;;;;0.10;0.10;;;4.30;99.90;2.80;94640.00;;;;4994532;28;20234;-74
2021/12/02 08:28:02;;;;;;;0.10;0.10;;;4.30;99.90;3.00;95029.00;;;;4994939;28;20200;-72
2021/12/02 08:30:33;;;;;;;0.10;0.10;;;4.40;99.90;3.10;95076.00;;;;4995046;28;20636;-74
2021/12/02 08:33:02;;;;;;;0.10;0.10;;;4.40;99.90;3.10;95081.00;;;;4994445;28;20217;-73
2021/12/02 08:35:31;;;;;;;0.10;0.10;;;4.40;99.90;3.10;95047.00;;;;4992992;28;20230;-74
2021/12/02 08:38:02;;;;;;;0.10;0.10;;;4.40;99.90;3.10;95055.00;;;;4995253;28;20200;-73
2021/12/02 08:40:31;;;;;;;0.10;0.10;;;4.40;99.90;3.20;95034.00;;;;4995249;28;20199;-75
2021/12/02 08:43:01;;;;;;;0.10;0.10;;;4.50;99.90;3.20;95093.00;;;;4988755;28;20216;-73
2021/12/02 08:45:30;;;;;;;0.10;0.10;;;4.50;99.90;3.00;94899.00;;;;4980198;28;20278;-73
2021/12/02 08:48:00;;;;;;;0.10;0.10;;;4.50;99.90;3.10;94997.00;;;;4975412;28;20463;-72
2021/12/02 08:50:29;;;;;;;0.10;0.10;;;4.40;99.90;3.20;95042.00;;;;4992235;28;20560;-72
2021/12/02 08:53:00;;;;;;;0.10;0.10;;;4.50;99.90;3.20;95067.00;;;;4994377;28;20732;-72
2021/12/02 08:55:30;;;;;;;0.10;0.10;;;4.50;99.90;3.10;95063.00;;;;4994446;28;20572;-74
2021/12/02 08:58:01;;;;;;;0.10;0.10;;;4.50;99.90;3.10;95056.00;;;;4994848;28;20259;-72
2021/12/02 09:00:34;;;;;;;0.10;0.10;;;4.50;99.90;3.10;95013.00;;;;4994874;28;20200;-72
2021/12/02 09:03:05;;;;;;;0.10;0.10;;;4.50;99.90;2.90;94701.00;;;;4994516;28;20220;-72
2021/12/02 09:05:34;;;;;;;0.03;0.03;;;4.40;99.90;3.00;94925.00;;;;4996847;28;20192;-72
2021/12/02 09:08:04;;;;;;;0.10;0.10;;;4.40;99.90;3.10;94911.00;;;;4997752;28;20200;-75
2021/12/02 09:10:32;;;;;;;0.10;0.10;;;4.50;99.90;3.10;94988.00;;;;4997012;28;20188;-73
2021/12/02 09:13:03;;;;;;;0.10;0.10;;;4.40;99.90;226.50;160406.00;;;;4994344;28;20213;-73
2021/12/02 09:15:31;;;;;;;0.10;0.10;;;4.50;99.90;226.50;160291.00;;;;4993929;28;20282;-75
2021/12/02 09:17:59;;;;;;;0.10;0.10;;;4.50;99.90;226.50;160135.00;;;;4994488;28;20251;-75
2021/12/02 09:20:27;;;;;;;0.00;0.00;;;4.60;99.90;226.50;231333.00;;;;4990276;28;20204;-73
2021/12/02 09:22:55;;;;;;;0.00;0.00;;;4.60;99.90;226.50;231333.00;;;;4993921;28;20223;-73
2021/12/02 09:25:25;;;;;;;0.10;0.10;;;4.60;99.90;226.50;231333.00;;;;4993705;28;20204;-73
2021/12/02 09:27:53;;;;;;;0.10;0.10;;;4.60;99.90;226.50;231333.00;;;;4993760;28;20201;-74
2021/12/02 09:30:21;;;;;;;0.00;0.00;;;4.60;99.90;226.50;231333.00;;;;4992864;28;20651;-73
2021/12/02 09:32:49;;;;;;;0.10;0.10;;;4.60;99.90;3.20;94917.00;;;;4994024;28;20230;-74
2021/12/02 09:35:17;;;;;;;0.10;0.10;;;4.50;99.90;3.10;94998.00;;;;4993827;28;20278;-74
2021/12/02 09:37:45;;;;;;;0.10;0.10;;;4.50;99.90;3.20;95038.00;;;;4993489;28;20584;-73
2021/12/02 09:40:15;;;;;;;0.10;0.10;;;4.50;99.90;3.20;94988.00;;;;4993983;28;20197;-74
2021/12/02 09:42:46;;;;;;;0.10;0.10;;;4.50;99.90;3.20;95038.00;;;;4992949;28;20224;-73
2021/12/02 09:45:15;;;;;;;0.10;0.10;;;4.50;99.90;3.20;95026.00;;;;4993196;28;20538;-74
2021/12/02 09:47:48;;;;;;;0.10;0.10;;;4.50;99.90;3.20;94961.00;;;;4993255;28;20196;-73
2021/12/02 09:50:21;;;;;;;0.10;0.10;;;4.60;99.90;3.10;94900.00;;;;4993246;28;20201;-73
2021/12/02 09:52:50;;;;;;;0.08;0.08;;;4.60;99.90;3.00;94842.00;;;;4993730;28;20278;-73
2021/12/02 09:55:24;;;;;;;0.00;0.00;;;4.50;99.90;3.10;94937.00;;;;4993361;28;20216;-73
2021/12/02 09:57:55;;;;;;;0.10;0.10;;;4.50;99.90;3.20;94960.00;;;;4993504;28;20188;-73
2021/12/02 10:00:37;;;;;;;0.08;0.08;;;4.60;99.90;3.30;94935.00;;;;4993687;28;20252;-73
2021/12/02 10:03:16;;;;;;;0.10;0.10;;;4.70;99.90;3.40;94950.00;;;;4992931;28;20721;-73
2021/12/02 10:05:53;;;;;;;0.08;0.08;;;4.70;99.90;3.40;94956.00;;;;4997828;28;20596;-73
2021/12/02 10:08:24;;;;;;;0.10;0.10;;;4.80;99.90;3.40;94926.00;;;;5001458;28;20200;-73
2021/12/02 10:10:56;;;;;;;0.10;0.10;;;4.80;99.90;3.40;94771.00;;;;4998776;28;20642;-73
2021/12/02 10:13:33;;;;;;;0.10;0.10;;;4.90;99.90;3.50;94896.00;;;;4998458;28;20254;-72
2021/12/02 10:16:16;;;;;;;0.10;0.10;;;4.90;99.90;3.60;94950.00;;;;4995541;28;20513;-73
2021/12/02 10:18:54;;;;;;;0.10;0.10;;;5.00;99.90;3.60;95038.00;;;;4994617;28;20251;-73
2021/12/02 10:21:28;;;;;;;0.10;0.10;;;4.90;99.90;3.60;94990.00;;;;5010217;28;20220;-73
2021/12/02 10:24:03;;;;;;;0.10;0.10;;;4.90;99.90;3.30;93237.00;;;;4995152;28;20207;-73
2021/12/02 10:26:38;;;;;;;0.10;0.10;;;4.90;99.90;3.60;95052.00;;;;4992673;28;20266;-73
2021/12/02 10:29:18;;;;;;;0.10;0.10;;;4.90;99.90;3.20;94677.00;;;;4992688;28;20188;-73
2021/12/02 10:31:48;;;;;;;0.10;0.10;;;4.80;99.90;2.70;94670.00;;;;4992731;28;20224;-73
2021/12/02 10:34:18;;;;;;;0.10;0.10;;;4.70;99.90;3.50;95019.00;;;;4993234;28;20227;-73
2021/12/02 10:36:48;;;;;;;0.10;0.10;;;4.80;99.90;3.30;94692.00;;;;4992440;28;20286;-73
2021/12/02 10:39:22;;;;;;;0.10;0.10;;;4.70;99.90;3.80;91821.00;;;;4992947;28;20193;-73
2021/12/02 10:42:00;;;;;;;0.10;0.10;;;4.80;99.90;3.50;94961.00;;;;4992513;28;20220;-73
2021/12/02 10:44:33;;;;;;;0.10;0.10;;;4.80;99.90;3.60;94965.00;;;;4992866;28;20196;-73
2021/12/02 10:47:06;;;;;;;0.10;0.10;;;4.90;99.90;3.60;95055.00;;;;4990927;28;20254;-73
2021/12/02 10:49:43;;;;;;;0.10;0.10;;;4.80;99.90;3.50;95056.00;;;;4990617;28;20251;-73
2021/12/02 10:52:16;;;;;;;0.00;0.00;;;4.80;99.90;3.50;94989.00;;;;4992858;28;20322;-73
2021/12/02 10:54:47;;;;;;;0.10;0.10;;;4.80;99.90;3.50;95009.00;;;;4992148;28;20200;-73
2021/12/02 10:57:19;;;;;;;0.10;0.10;;;4.80;99.90;3.60;95042.00;;;;4991874;28;20201;-73
2021/12/02 10:59:50;;;;;;;0.00;0.00;;;4.90;99.90;3.60;95033.00;;;;4991068;28;20196;-73
2021/12/02 11:02:27;;;;;;;0.10;0.10;;;4.80;99.90;3.50;94999.00;;;;4992660;28;20224;-73
2021/12/02 11:05:00;;;;;;;0.10;0.10;;;4.80;99.90;3.50;94903.00;;;;4990933;28;20288;-73
2021/12/02 11:07:32;;;;;;;0.10;0.10;;;4.80;99.90;3.50;95022.00;;;;4985588;28;20200;-73
2021/12/02 11:10:04;;;;;;;0.05;0.05;;;4.70;99.90;3.40;95020.00;;;;4988075;28;20196;-73
2021/12/02 11:12:34;;;;;;;0.10;0.10;;;4.70;99.90;3.40;95055.00;;;;4992043;28;20582;-73
2021/12/02 11:15:11;;;;;;;0.10;0.10;;;4.70;99.90;3.40;95009.00;;;;4991445;28;20541;-73
2021/12/02 11:17:46;;;;;;;0.03;0.03;;;4.70;99.90;3.40;94907.00;;;;4991905;28;20199;-73
2021/12/02 11:20:20;;;;;;;0.10;0.10;;;4.80;99.90;3.20;94731.00;;;;4992331;28;20188;-73
2021/12/02 11:22:53;;;;;;;0.10;0.10;;;4.80;99.90;3.10;94719.00;;;;4992518;28;20218;-73
2021/12/02 11:25:21;;;;;;;0.10;0.10;;;4.70;99.90;3.10;94748.00;;;;4992525;28;20203;-72
2021/12/02 11:27:51;;;;;;;0.10;0.10;;;4.70;99.90;3.20;94956.00;;;;4992504;28;20196;-72
2021/12/02 11:30:26;;;;;;;0.10;0.10;;;4.70;99.90;3.40;95015.00;;;;4992059;28;20240;-72